Time;durP1;ratioP1;P1;durP2;ratioP2;P2;SDS_P1;SDS_P2;PMS_P1;PMS_P2;Temp;Humidity;BMP_temperature;BMP_pressure;BME280_temperature;BME280_humidity;BME280_pressure;Samples;Min_cycle;Max_cycle;Signal;HPM_P1;HPM_P2
2021/09/19 00:02:08;;;;;;;5.28;2.90;;;;;;;14.48;100.00;100922.78;6368859;22;20008;-79
2021/09/19 00:04:38;;;;;;;5.93;3.10;;;;;;;14.23;100.00;100930.06;6355812;23;20009;-79
2021/09/19 00:07:08;;;;;;;5.18;2.88;;;;;;;14.23;100.00;100929.22;6367973;23;20009;-79
2021/09/19 00:09:38;;;;;;;4.78;3.10;;;;;;;13.96;100.00;100926.00;6369205;23;20440;-79
2021/09/19 00:12:09;;;;;;;7.97;2.95;;;;;;;14.03;100.00;100921.31;6368145;23;20009;-79
2021/09/19 00:14:40;;;;;;;5.72;3.00;;;;;;;13.91;100.00;100927.13;6368220;23;20002;-79
2021/09/19 00:17:10;;;;;;;5.75;3.00;;;;;;;14.04;100.00;100925.66;6369426;23;20441;-78
2021/09/19 00:19:41;;;;;;;9.30;3.00;;;;;;;13.97;100.00;100925.09;6368817;23;20002;-79
2021/09/19 00:22:11;;;;;;;6.25;2.83;;;;;;;13.81;100.00;100928.44;6369221;22;20075;-79
2021/09/19 00:24:42;;;;;;;5.15;3.03;;;;;;;13.85;100.00;100923.00;6367591;22;20001;-79
2021/09/19 00:27:12;;;;;;;4.88;3.00;;;;;;;14.00;100.00;100922.31;6369320;22;20235;-79
2021/09/19 00:29:42;;;;;;;5.60;2.92;;;;;;;13.92;100.00;100926.22;6366446;22;20014;-79
2021/09/19 00:32:12;;;;;;;6.00;3.03;;;;;;;13.92;100.00;100926.22;6365709;23;20290;-79
2021/09/19 00:34:43;;;;;;;4.45;3.15;;;;;;;13.75;100.00;100924.28;6332844;23;20063;-79
2021/09/19 00:37:13;;;;;;;7.18;3.20;;;;;;;13.70;100.00;100928.91;6332704;23;20072;-79
2021/09/19 00:39:44;;;;;;;8.27;2.58;;;;;;;13.87;100.00;100920.28;6369209;23;20032;-78
2021/09/19 00:42:14;;;;;;;4.85;3.15;;;;;;;13.72;100.00;100918.34;6368792;23;19998;-78
2021/09/19 00:44:44;;;;;;;5.03;2.90;;;;;;;13.69;100.00;100916.69;6366819;22;20163;-79
2021/09/19 00:47:15;;;;;;;5.35;3.13;;;;;;;13.52;100.00;100920.94;6368567;23;20002;-79
2021/09/19 00:49:45;;;;;;;5.28;3.08;;;;;;;13.53;100.00;100926.13;6368932;22;20010;-79
2021/09/19 00:52:15;;;;;;;5.65;3.17;;;;;;;13.53;100.00;100926.13;6369201;22;20420;-79
2021/09/19 00:54:48;;;;;;;6.90;3.03;;;;;;;13.41;100.00;100920.53;6368940;23;20481;-79
2021/09/19 00:57:18;;;;;;;10.52;3.40;;;;;;;13.38;100.00;100923.31;6369555;23;20005;-78
2021/09/19 00:59:49;;;;;;;5.88;3.17;;;;;;;13.33;100.00;100922.63;6369918;23;20588;-79
2021/09/19 01:02:21;;;;;;;5.60;3.08;;;;;;;13.25;100.00;100917.66;6369341;23;20073;-78
2021/09/19 01:04:52;;;;;;;6.55;3.50;;;;;;;13.20;100.00;100922.25;6368867;23;20089;-78
2021/09/19 01:07:22;;;;;;;5.45;3.10;;;;;;;13.21;100.00;100926.59;6368759;23;20024;-78
2021/09/19 01:09:53;;;;;;;5.97;3.20;;;;;;;13.17;100.00;100917.16;6357962;23;20151;-79
2021/09/19 01:12:24;;;;;;;5.80;3.08;;;;;;;13.18;100.00;100907.47;6332672;23;20013;-78
2021/09/19 01:14:58;;;;;;;10.18;3.60;;;;;;;13.19;100.00;100917.06;6368871;23;20004;-79
2021/09/19 01:17:28;;;;;;;5.30;3.47;;;;;;;13.23;100.00;100913.44;6357537;23;20023;-78
2021/09/19 01:19:59;;;;;;;7.85;3.17;;;;;;;13.27;100.00;100910.59;6368390;23;20002;-78
2021/09/19 01:22:38;;;;;;;10.05;3.00;;;;;;;13.20;100.00;100910.94;6369798;23;20002;-78
2021/09/19 01:25:11;;;;;;;6.00;2.97;;;;;;;13.16;100.00;100898.81;6368823;23;20200;-79
2021/09/19 01:27:44;;;;;;;5.35;2.83;;;;;;;13.24;100.00;100912.50;6369120;23;20054;-78
2021/09/19 01:30:15;;;;;;;4.40;2.75;;;;;;;13.20;100.00;100911.75;6368738;23;20025;-78
2021/09/19 01:32:46;;;;;;;6.78;3.65;;;;;;;13.23;100.00;100910.81;6368840;23;20084;-78
2021/09/19 01:35:16;;;;;;;5.35;3.20;;;;;;;13.15;100.00;100913.72;6331867;23;20094;-79
2021/09/19 01:37:46;;;;;;;5.88;3.00;;;;;;;13.12;100.00;100913.00;6368521;23;20009;-78
2021/09/19 01:40:17;;;;;;;6.88;3.50;;;;;;;12.95;100.00;100915.44;6332643;23;20085;-78
2021/09/19 01:42:47;;;;;;;5.07;3.08;;;;;;;13.08;100.00;100912.25;6370276;23;20072;-78
2021/09/19 01:45:18;;;;;;;5.10;3.05;;;;;;;13.10;100.00;100907.78;6368936;22;20019;-78
2021/09/19 01:47:49;;;;;;;4.30;3.10;;;;;;;13.16;100.00;100915.44;6368479;23;20081;-78
2021/09/19 01:50:21;;;;;;;6.47;3.40;;;;;;;13.19;100.00;100910.06;6332752;23;19997;-78
2021/09/19 01:52:54;;;;;;;5.22;3.10;;;;;;;13.22;100.00;100901.22;6368816;23;20012;-78
2021/09/19 01:55:25;;;;;;;4.47;3.10;;;;;;;13.23;100.00;100897.69;6368581;23;20025;-78
2021/09/19 01:57:56;;;;;;;6.18;3.25;;;;;;;13.15;100.00;100908.47;6369650;23;20458;-79
2021/09/19 02:00:26;;;;;;;6.13;3.28;;;;;;;12.96;100.00;100895.31;6368426;23;19998;-78
2021/09/19 02:02:57;;;;;;;8.30;3.22;;;;;;;12.97;100.00;100897.88;6368664;23;20002;-78
2021/09/19 02:05:27;;;;;;;5.82;3.38;;;;;;;12.88;100.00;100892.97;6368223;22;20028;-78
2021/09/19 02:07:57;;;;;;;5.45;3.20;;;;;;;12.88;100.00;100894.72;6368658;23;20002;-79
2021/09/19 02:10:28;;;;;;;6.88;2.95;;;;;;;12.88;100.00;100897.34;6368495;22;20025;-78
2021/09/19 02:12:58;;;;;;;6.18;3.47;;;;;;;12.65;100.00;100903.50;6368485;23;20012;-79
2021/09/19 02:15:28;;;;;;;6.75;3.60;;;;;;;12.78;100.00;100904.72;6368464;22;20027;-78
2021/09/19 02:17:59;;;;;;;6.32;3.35;;;;;;;12.77;100.00;100900.41;6368576;23;20073;-79
2021/09/19 02:20:29;;;;;;;7.30;3.20;;;;;;;12.85;100.00;100898.31;6332215;23;20002;-78
2021/09/19 02:23:00;;;;;;;6.18;3.53;;;;;;;12.87;100.00;100899.13;6368767;23;20001;-79
2021/09/19 02:25:30;;;;;;;5.30;3.30;;;;;;;13.17;100.00;100898.78;6368174;22;20050;-79
2021/09/19 02:28:01;;;;;;;5.82;3.03;;;;;;;13.20;100.00;100900.44;6369515;22;20001;-79
2021/09/19 02:30:31;;;;;;;5.45;3.45;;;;;;;13.12;100.00;100897.25;6368909;23;19998;-79
2021/09/19 02:33:01;;;;;;;6.50;3.00;;;;;;;12.93;100.00;100900.66;6369204;22;20006;-79
2021/09/19 02:35:32;;;;;;;5.53;3.10;;;;;;;13.03;100.00;100897.63;6368775;23;20060;-79
2021/09/19 02:38:02;;;;;;;6.80;3.72;;;;;;;12.73;100.00;100898.81;6332587;23;20009;-79
2021/09/19 02:40:33;;;;;;;6.18;3.20;;;;;;;12.65;100.00;100893.00;6370266;23;19997;-79
2021/09/19 02:43:04;;;;;;;5.68;3.53;;;;;;;12.71;100.00;100900.66;6371126;23;19997;-79
2021/09/19 02:45:34;;;;;;;6.28;3.25;;;;;;;12.66;100.00;100893.88;6370234;23;20005;-79
2021/09/19 02:48:05;;;;;;;5.47;2.70;;;;;;;12.73;100.00;100895.31;6369557;23;20028;-79
2021/09/19 02:50:35;;;;;;;4.95;3.35;;;;;;;12.62;100.00;100895.75;6369209;23;19997;-78
2021/09/19 02:53:06;;;;;;;7.50;3.55;;;;;;;12.59;100.00;100897.63;6369379;23;20001;-79
2021/09/19 02:55:36;;;;;;;6.50;3.60;;;;;;;12.61;100.00;100899.28;6368426;22;20003;-79
2021/09/19 02:58:07;;;;;;;5.97;3.30;;;;;;;12.65;100.00;100900.88;6332439;23;20009;-79
2021/09/19 03:00:38;;;;;;;5.90;3.30;;;;;;;12.54;100.00;100904.81;6369082;23;19997;-79
2021/09/19 03:03:08;;;;;;;7.57;3.70;;;;;;;12.64;100.00;100904.41;6369585;23;20096;-79
2021/09/19 03:05:38;;;;;;;6.85;3.30;;;;;;;12.50;100.00;100900.63;6332081;23;20016;-78
2021/09/19 03:08:08;;;;;;;4.60;3.20;;;;;;;12.45;100.00;100897.31;6332487;23;20006;-78
2021/09/19 03:10:39;;;;;;;6.22;3.30;;;;;;;12.50;100.00;100903.22;6367983;22;20006;-78
2021/09/19 03:13:10;;;;;;;5.03;3.22;;;;;;;12.47;100.00;100900.72;6332373;23;20009;-78
2021/09/19 03:15:40;;;;;;;5.60;3.50;;;;;;;12.61;100.00;100906.31;6368447;22;20004;-79
2021/09/19 03:18:10;;;;;;;5.68;3.47;;;;;;;12.66;100.00;100904.34;6333214;23;20013;-79
2021/09/19 03:20:40;;;;;;;6.18;3.75;;;;;;;12.59;100.00;100901.13;6368968;22;20481;-79
2021/09/19 03:23:11;;;;;;;4.68;3.35;;;;;;;12.46;100.00;100897.25;6368773;23;20028;-79
2021/09/19 03:25:41;;;;;;;5.60;3.55;;;;;;;12.50;100.00;100901.44;6368367;23;20001;-79
2021/09/19 03:28:11;;;;;;;6.85;3.78;;;;;;;12.45;100.00;100897.31;6332856;23;20005;-79
2021/09/19 03:30:42;;;;;;;4.72;3.22;;;;;;;12.53;100.00;100901.34;6369562;22;20025;-78
2021/09/19 03:33:12;;;;;;;6.75;3.72;;;;;;;12.42;100.00;100898.28;6368827;23;20485;-79
2021/09/19 03:35:42;;;;;;;9.35;4.00;;;;;;;12.40;100.00;100892.25;6369242;23;20430;-79
2021/09/19 03:38:12;;;;;;;5.65;3.35;;;;;;;12.48;100.00;100897.19;6369906;22;20002;-79
2021/09/19 03:40:43;;;;;;;5.57;3.28;;;;;;;12.48;100.00;100892.78;6369291;22;20004;-79
2021/09/19 03:43:13;;;;;;;6.35;3.55;;;;;;;12.43;100.00;100889.50;6333957;23;20005;-79
2021/09/19 03:45:44;;;;;;;9.60;4.03;;;;;;;12.41;100.00;100898.31;6333527;23;20016;-79
2021/09/19 03:48:15;;;;;;;6.97;4.20;;;;;;;12.36;100.00;100902.91;6334709;23;20583;-79
2021/09/19 03:50:46;;;;;;;8.48;3.83;;;;;;;12.36;100.00;100888.03;6369065;23;20611;-79
2021/09/19 03:53:16;;;;;;;6.75;4.00;;;;;;;12.39;100.00;100898.41;6369297;23;20076;-79
2021/09/19 03:55:47;;;;;;;6.80;3.60;;;;;;;12.30;100.00;100887.41;6369485;22;20426;-79
2021/09/19 03:58:17;;;;;;;7.60;3.65;;;;;;;12.39;100.00;100890.53;6333312;23;20467;-79
2021/09/19 04:00:48;;;;;;;6.50;3.70;;;;;;;12.46;100.00;100894.63;6333532;23;19998;-79
2021/09/19 04:03:18;;;;;;;6.25;3.95;;;;;;;12.46;100.00;100892.00;6357605;23;20027;-78
2021/09/19 04:05:48;;;;;;;8.70;4.13;;;;;;;12.40;100.00;100883.50;6369633;22;20421;-79
2021/09/19 04:08:18;;;;;;;8.13;3.55;;;;;;;12.43;100.00;100889.50;6369125;22;20014;-79
2021/09/19 04:10:49;;;;;;;9.55;3.80;;;;;;;12.39;100.00;100887.91;6332104;23;20437;-79
2021/09/19 04:13:19;;;;;;;5.63;3.42;;;;;;;12.42;100.00;100887.78;6332855;23;20001;-78
2021/09/19 04:15:49;;;;;;;7.45;3.90;;;;;;;12.57;100.00;100892.44;6368278;22;20329;-78
2021/09/19 04:18:20;;;;;;;6.35;3.60;;;;;;;12.57;100.00;100896.81;6332899;23;20040;-78
2021/09/19 04:20:50;;;;;;;5.80;3.35;;;;;;;12.66;100.00;100899.13;6369540;22;19998;-79
2021/09/19 04:23:22;;;;;;;9.35;4.10;;;;;;;12.76;100.00;100906.56;6369420;22;20109;-78
2021/09/19 04:25:52;;;;;;;6.63;3.60;;;;;;;12.70;100.00;100911.19;6370282;23;20112;-79
2021/09/19 04:28:23;;;;;;;7.63;3.95;;;;;;;12.71;100.00;100913.75;6335105;23;20048;-78
2021/09/19 04:30:53;;;;;;;5.70;3.30;;;;;;;12.59;100.00;100913.34;6371260;22;20001;-78
2021/09/19 04:33:24;;;;;;;5.75;3.45;;;;;;;12.56;100.00;100913.47;6334319;23;20005;-78
2021/09/19 04:35:54;;;;;;;7.55;3.85;;;;;;;12.57;100.00;100912.56;6334519;23;20005;-78
2021/09/19 04:38:25;;;;;;;5.40;3.03;;;;;;;12.61;100.00;100925.50;6370227;23;20005;-79
2021/09/19 04:40:55;;;;;;;7.13;4.03;;;;;;;12.57;100.00;100913.44;6371071;22;19997;-79
2021/09/19 04:43:26;;;;;;;9.10;3.67;;;;;;;12.52;100.00;100922.38;6333815;23;20600;-79
2021/09/19 04:45:56;;;;;;;8.05;4.07;;;;;;;12.35;100.00;100923.03;6370453;23;20001;-79
2021/09/19 04:48:27;;;;;;;6.70;3.40;;;;;;;12.27;100.00;100919.81;6373887;22;20404;-80
2021/09/19 04:50:57;;;;;;;7.60;3.70;;;;;;;12.19;100.00;100921.88;6375153;23;20013;-80
2021/09/19 04:53:28;;;;;;;8.40;4.20;;;;;;;12.20;100.00;100922.72;6338727;23;20488;-80
2021/09/19 04:55:58;;;;;;;7.00;3.67;;;;;;;12.29;100.00;100927.63;6372898;23;20001;-80
2021/09/19 04:58:29;;;;;;;5.93;3.53;;;;;;;12.27;100.00;100925.06;6373945;22;20025;-80
2021/09/19 05:01:02;;;;;;;7.75;3.83;;;;;;;12.26;100.00;100919.88;6373270;22;19997;-80
2021/09/19 05:03:32;;;;;;;8.32;3.78;;;;;;;12.32;100.00;100917.88;6305902;23;20013;-80
2021/09/19 05:06:02;;;;;;;8.00;3.88;;;;;;;12.30;100.00;100919.69;6342198;23;19998;-80
2021/09/19 05:08:35;;;;;;;7.75;4.10;;;;;;;12.18;100.00;100917.53;6306590;23;20017;-80
2021/09/19 05:11:05;;;;;;;8.68;4.03;;;;;;;12.27;100.00;100919.81;6343211;23;20005;-80
2021/09/19 05:13:36;;;;;;;9.85;3.78;;;;;;;12.17;100.00;100922.84;6306133;23;20001;-80
2021/09/19 05:16:06;;;;;;;8.20;4.05;;;;;;;12.17;100.00;100923.69;6306287;23;20002;-80
2021/09/19 05:18:36;;;;;;;6.47;3.95;;;;;;;12.10;100.00;100927.44;6306751;23;20010;-80
2021/09/19 05:21:07;;;;;;;7.22;4.28;;;;;;;12.11;100.00;100931.75;6342476;23;19998;-80
2021/09/19 05:23:37;;;;;;;8.20;4.00;;;;;;;12.19;100.00;100932.34;6306296;23;20081;-80
2021/09/19 05:26:07;;;;;;;6.18;3.70;;;;;;;12.24;100.00;100929.53;6305838;23;19998;-80
2021/09/19 05:28:37;;;;;;;6.93;4.35;;;;;;;12.24;100.00;100934.78;6343275;23;20013;-80
2021/09/19 05:31:08;;;;;;;6.25;3.67;;;;;;;12.21;100.00;100938.41;6342891;23;20025;-80
2021/09/19 05:33:40;;;;;;;7.00;4.00;;;;;;;12.21;100.00;100946.25;6341033;23;20052;-80
2021/09/19 05:36:10;;;;;;;9.75;4.18;;;;;;;12.21;100.00;100933.16;6305967;23;20040;-80
2021/09/19 05:38:41;;;;;;;6.68;4.30;;;;;;;12.19;100.00;100934.09;6342990;23;20006;-80
2021/09/19 05:41:12;;;;;;;6.40;3.83;;;;;;;12.27;100.00;100930.31;6331521;23;20029;-80
2021/09/19 05:43:42;;;;;;;6.88;3.65;;;;;;;12.23;100.00;100933.94;6342021;23;20017;-80
2021/09/19 05:46:13;;;;;;;6.85;3.40;;;;;;;12.20;100.00;100934.06;6304947;23;20051;-80
2021/09/19 05:48:44;;;;;;;6.15;3.50;;;;;;;12.30;100.00;100924.94;6306410;23;20006;-80
2021/09/19 05:51:15;;;;;;;8.23;3.88;;;;;;;12.29;100.00;100928.47;6343246;23;19998;-80
2021/09/19 05:53:45;;;;;;;6.80;3.80;;;;;;;12.40;100.00;100923.69;6305964;23;20005;-80
2021/09/19 05:56:16;;;;;;;7.22;3.88;;;;;;;12.22;100.00;100928.75;6306701;23;20008;-80
2021/09/19 05:58:46;;;;;;;7.07;3.72;;;;;;;12.29;100.00;100932.88;6342530;23;20521;-80
2021/09/19 06:01:17;;;;;;;7.20;3.83;;;;;;;12.42;100.00;100934.09;6305508;23;20025;-80
2021/09/19 06:03:47;;;;;;;7.72;3.78;;;;;;;12.41;100.00;100922.78;6305341;23;20006;-80
2021/09/19 06:06:17;;;;;;;6.32;3.42;;;;;;;12.38;100.00;100935.13;6306148;23;20001;-80
2021/09/19 06:08:48;;;;;;;6.95;3.70;;;;;;;12.35;100.00;100930.88;6305736;23;20013;-80
2021/09/19 06:11:18;;;;;;;6.32;3.45;;;;;;;12.51;100.00;100929.41;6342171;23;20016;-80
2021/09/19 06:13:48;;;;;;;6.80;3.72;;;;;;;12.53;100.00;100924.94;6341369;23;20010;-80
2021/09/19 06:16:21;;;;;;;6.05;3.45;;;;;;;12.48;100.00;100928.66;6342024;23;20615;-80
2021/09/19 06:18:52;;;;;;;7.57;3.67;;;;;;;12.47;100.00;100929.56;6342673;23;20009;-80
2021/09/19 06:21:22;;;;;;;6.85;3.60;;;;;;;12.46;100.00;100920.00;6306576;23;20001;-80
2021/09/19 06:23:52;;;;;;;6.57;3.78;;;;;;;12.52;100.00;100928.50;6340033;23;20002;-80
2021/09/19 06:26:22;;;;;;;7.65;3.60;;;;;;;12.51;100.00;100928.53;6305638;23;20472;-80
2021/09/19 06:28:53;;;;;;;7.07;4.05;;;;;;;12.53;100.00;100924.09;6306140;23;20012;-80
2021/09/19 06:31:23;;;;;;;7.25;3.65;;;;;;;12.51;100.00;100918.91;6341221;23;20081;-80
2021/09/19 06:33:53;;;;;;;6.27;4.30;;;;;;;12.53;100.00;100921.47;6340875;23;20308;-80
2021/09/19 06:36:24;;;;;;;6.80;4.05;;;;;;;12.54;100.00;100924.03;6341555;23;20644;-80
2021/09/19 06:38:54;;;;;;;8.00;4.55;;;;;;;12.61;100.00;100919.41;6304709;23;20006;-80
2021/09/19 06:41:24;;;;;;;7.13;4.57;;;;;;;12.65;100.00;100915.75;6305983;23;20324;-80
2021/09/19 06:43:55;;;;;;;7.43;4.20;;;;;;;12.55;100.00;100919.63;6340984;23;20241;-80
2021/09/19 06:46:29;;;;;;;6.82;4.38;;;;;;;12.47;100.00;100917.28;6340083;23;20058;-79
2021/09/19 06:49:02;;;;;;;8.00;3.88;;;;;;;12.51;100.00;100918.91;6340297;23;20025;-79
2021/09/19 06:51:32;;;;;;;6.35;4.20;;;;;;;12.55;100.00;100919.63;6339326;23;20423;-79
2021/09/19 06:54:03;;;;;;;6.90;4.25;;;;;;;12.56;100.00;100924.84;6303273;23;20189;-80
2021/09/19 06:56:33;;;;;;;6.28;4.13;;;;;;;12.54;100.00;100917.94;6305426;23;20001;-79
2021/09/19 06:59:03;;;;;;;10.35;4.53;;;;;;;12.64;100.00;100925.38;6339197;23;20009;-79
2021/09/19 07:01:34;;;;;;;6.97;4.75;;;;;;;12.59;100.00;100932.56;6303357;23;20021;-79
2021/09/19 07:04:04;;;;;;;8.43;3.95;;;;;;;12.56;100.00;100929.22;6338230;23;20337;-79
2021/09/19 07:06:34;;;;;;;6.20;4.30;;;;;;;12.54;100.00;100923.16;6303199;23;20030;-79
2021/09/19 07:09:05;;;;;;;6.30;3.78;;;;;;;12.61;100.00;100928.13;6339197;23;20009;-79
2021/09/19 07:11:36;;;;;;;6.63;4.30;;;;;;;12.67;100.00;100930.50;6338493;23;20001;-79
2021/09/19 07:14:06;;;;;;;6.28;3.80;;;;;;;12.62;100.00;100931.63;6338203;23;20001;-79
2021/09/19 07:16:37;;;;;;;5.75;4.03;;;;;;;12.72;100.00;100930.34;6302777;23;20009;-79
2021/09/19 07:19:08;;;;;;;7.18;3.60;;;;;;;12.69;100.00;100928.69;6337829;23;20024;-78
2021/09/19 07:21:38;;;;;;;5.97;3.85;;;;;;;12.72;100.00;100923.34;6300942;23;20100;-78
2021/09/19 07:24:08;;;;;;;7.20;3.72;;;;;;;12.72;100.00;100930.34;6335859;23;20009;-78
2021/09/19 07:26:39;;;;;;;4.75;3.17;;;;;;;12.71;100.00;100929.50;6336723;23;20076;-78
2021/09/19 07:29:09;;;;;;;4.47;3.33;;;;;;;12.72;100.00;100932.97;6336484;23;20077;-79
2021/09/19 07:31:40;;;;;;;5.85;3.42;;;;;;;12.79;100.00;100930.03;6336460;23;20346;-78
2021/09/19 07:34:10;;;;;;;7.53;3.53;;;;;;;12.78;100.00;100923.09;6337513;23;20002;-79
2021/09/19 07:36:41;;;;;;;7.47;3.65;;;;;;;12.78;100.00;100924.88;6336487;23;20059;-79
2021/09/19 07:39:11;;;;;;;7.95;3.55;;;;;;;12.84;100.00;100933.31;6337595;23;20024;-78
2021/09/19 07:41:42;;;;;;;4.20;3.10;;;;;;;12.89;100.00;100934.03;6337436;23;19994;-78
2021/09/19 07:44:12;;;;;;;7.30;3.50;;;;;;;12.87;100.00;100938.47;6336313;23;20060;-79
2021/09/19 07:46:43;;;;;;;8.32;3.70;;;;;;;12.90;100.00;100938.34;6294971;23;20272;-78
2021/09/19 07:49:14;;;;;;;6.97;3.38;;;;;;;12.94;100.00;100937.34;6299760;23;20002;-79
2021/09/19 07:51:45;;;;;;;5.10;3.30;;;;;;;13.03;100.00;100944.88;6336339;23;20051;-79
2021/09/19 07:54:15;;;;;;;6.90;3.63;;;;;;;12.88;100.00;100942.81;6335592;23;19997;-79
2021/09/19 07:56:46;;;;;;;6.97;4.03;;;;;;;12.90;100.00;100941.81;6336279;23;19998;-78
2021/09/19 07:59:17;;;;;;;12.20;5.88;;;;;;;13.04;100.00;100946.56;6301496;23;20014;-78
2021/09/19 08:01:47;;;;;;;5.78;3.25;;;;;;;13.03;100.00;100945.72;6298061;23;20095;-78
2021/09/19 08:04:18;;;;;;;5.80;3.08;;;;;;;13.11;100.00;100942.78;6333904;23;20009;-79
2021/09/19 08:06:48;;;;;;;5.15;3.40;;;;;;;13.14;100.00;100954.03;6335271;23;20014;-79
2021/09/19 08:09:18;;;;;;;9.95;3.28;;;;;;;13.18;100.00;100955.59;6301453;23;20064;-79
2021/09/19 08:11:49;;;;;;;6.22;3.55;;;;;;;13.23;100.00;100950.16;6334605;23;20439;-78
2021/09/19 08:14:19;;;;;;;6.35;3.60;;;;;;;13.24;100.00;100957.13;6300316;23;20010;-79
2021/09/19 08:16:49;;;;;;;6.25;3.53;;;;;;;13.37;100.00;100959.19;6334530;23;20446;-78
2021/09/19 08:19:21;;;;;;;5.97;3.40;;;;;;;13.42;100.00;100953.75;6299981;23;20014;-79
2021/09/19 08:21:52;;;;;;;5.35;3.30;;;;;;;13.53;100.00;100947.13;6336758;23;20002;-78
2021/09/19 08:24:23;;;;;;;4.82;3.03;;;;;;;13.79;100.00;100953.91;6324574;23;20009;-78
2021/09/19 08:26:53;;;;;;;6.70;3.10;;;;;;;13.57;100.00;100956.59;6335850;23;20059;-79
2021/09/19 08:29:23;;;;;;;6.32;3.00;;;;;;;13.63;100.00;100960.75;6335482;23;20012;-79
2021/09/19 08:31:53;;;;;;;5.70;3.47;;;;;;;13.52;100.00;100958.56;6298507;23;20160;-79
2021/09/19 08:34:24;;;;;;;5.90;2.83;;;;;;;13.87;100.00;100960.56;6333727;23;20029;-78
2021/09/19 08:36:54;;;;;;;5.80;3.00;;;;;;;13.85;100.00;100959.78;6323552;23;20029;-78
2021/09/19 08:39:27;;;;;;;7.82;3.15;;;;;;;13.92;100.00;100961.19;6336326;23;20371;-78
2021/09/19 08:41:58;;;;;;;5.78;3.20;;;;;;;13.78;100.00;100973.22;6297246;23;20073;-79
2021/09/19 08:44:28;;;;;;;8.27;3.13;;;;;;;13.59;100.00;100970.50;6333873;23;20040;-79
2021/09/19 08:47:00;;;;;;;6.15;3.75;;;;;;;13.67;100.00;100975.44;6325298;23;20065;-78
2021/09/19 08:49:33;;;;;;;4.95;2.90;;;;;;;13.60;100.00;100971.38;6325243;23;20096;-78
2021/09/19 08:52:03;;;;;;;5.95;2.95;;;;;;;13.83;100.00;100976.50;6335575;23;20013;-79
2021/09/19 08:54:34;;;;;;;4.70;2.90;;;;;;;13.78;100.00;100978.50;6336739;23;20339;-79
2021/09/19 08:57:07;;;;;;;4.07;2.78;;;;;;;13.76;100.00;100975.06;6301712;23;20077;-79
2021/09/19 09:00:02;;;;;;;4.60;2.85;;;;;;;13.73;100.00;100981.28;6303823;23;20029;-79
2021/09/19 09:02:58;;;;;;;7.88;3.03;;;;;;;13.68;100.00;100979.78;6326879;23;19994;-79
2021/09/19 09:05:30;;;;;;;4.75;2.90;;;;;;;13.76;100.00;100978.53;6296635;23;20464;-80
2021/09/19 09:08:01;;;;;;;5.47;2.97;;;;;;;13.88;100.00;100974.56;6327217;23;20006;-81
2021/09/19 09:10:43;;;;;;;4.40;2.97;;;;;;;13.82;100.00;100980.94;6334412;23;20005;-80
2021/09/19 09:13:16;;;;;;;4.32;2.67;;;;;;;13.82;100.00;100974.81;6330533;23;20205;-81
2021/09/19 09:16:05;;;;;;;5.70;3.05;;;;;;;13.71;100.00;100980.50;6328449;23;20013;-80
2021/09/19 09:18:43;;;;;;;5.30;2.83;;;;;;;13.76;100.00;100986.41;6303328;23;20430;-80
2021/09/19 09:21:29;;;;;;;4.82;2.70;;;;;;;13.65;100.00;100982.53;6303344;23;20029;-80
2021/09/19 09:24:03;;;;;;;4.47;2.77;;;;;;;13.66;100.00;100979.84;6301572;23;20010;-80
2021/09/19 09:26:38;;;;;;;6.18;2.95;;;;;;;13.69;100.00;100971.84;6302537;23;20016;-80
2021/09/19 09:29:08;;;;;;;5.35;2.70;;;;;;;13.75;100.00;100973.38;6302947;23;20041;-80
2021/09/19 09:31:52;;;;;;;6.10;2.45;;;;;;;13.72;100.00;100976.97;6332015;23;20006;-81
2021/09/19 09:34:26;;;;;;;4.75;2.53;;;;;;;13.82;100.00;100978.31;6305847;23;20029;-80
2021/09/19 09:36:59;;;;;;;3.80;2.60;;;;;;;13.84;100.00;100975.59;6302657;23;20095;-79
2021/09/19 09:39:35;;;;;;;5.65;3.05;;;;;;;13.84;100.00;100984.34;6341157;23;20006;-80
2021/09/19 09:42:10;;;;;;;;;;;;;;;13.91;99.83;100983.16;6329468;23;20001;-80
2021/09/19 09:44:45;;;;;;;4.70;2.67;;;;;;;14.23;99.35;100981.81;6330830;23;19909;-82
2021/09/19 09:47:19;;;;;;;5.80;3.07;;;;;;;13.90;99.13;100980.59;6305992;23;20315;-79
2021/09/19 09:49:55;;;;;;;4.18;2.45;;;;;;;14.11;97.64;100982.31;6304965;23;20021;-80
2021/09/19 09:52:31;;;;;;;3.53;2.50;;;;;;;14.24;96.10;100983.53;6306634;23;20206;-82
2021/09/19 09:55:10;;;;;;;4.82;2.45;;;;;;;14.12;95.33;100978.75;6341235;23;20010;-80
2021/09/19 09:58:02;;;;;;;4.35;2.60;;;;;;;14.07;96.39;100975.47;6304140;23;20091;-81
2021/09/19 10:00:33;;;;;;;3.58;2.42;;;;;;;14.08;98.45;100971.94;6302272;23;20044;-81
2021/09/19 10:03:04;;;;;;;3.50;2.25;;;;;;;14.31;95.60;100974.41;6302452;23;20010;-81
2021/09/19 10:05:35;;;;;;;5.18;2.42;;;;;;;14.38;95.32;100970.59;6334933;23;20008;-80
2021/09/19 10:08:05;;;;;;;5.78;2.53;;;;;;;14.15;97.07;100976.84;6332477;23;20422;-80
2021/09/19 10:10:41;;;;;;;5.47;2.40;;;;;;;14.00;98.13;100990.66;6341323;23;20189;-81
2021/09/19 10:13:14;;;;;;;5.05;2.25;;;;;;;13.91;95.99;100991.03;6332954;23;20085;-81
2021/09/19 10:15:44;;;;;;;5.82;2.35;;;;;;;14.05;95.98;100982.56;6340534;23;20010;-80
2021/09/19 10:18:29;;;;;;;4.45;2.45;;;;;;;13.99;95.53;100985.44;6313203;23;20379;-80
2021/09/19 10:21:02;;;;;;;5.80;2.40;;;;;;;14.04;95.59;100983.47;6340053;23;20027;-80
2021/09/19 10:23:34;;;;;;;4.32;2.38;;;;;;;14.13;97.29;100980.47;6341117;23;20002;-81
2021/09/19 10:26:11;;;;;;;3.00;1.90;;;;;;;14.29;93.08;100976.28;6341453;23;20001;-80
2021/09/19 10:28:44;;;;;;;3.45;2.15;;;;;;;14.35;92.17;100979.50;6328931;23;20080;-80
2021/09/19 10:31:32;;;;;;;5.50;2.28;;;;;;;14.60;92.31;100979.25;6340767;23;19998;-81
2021/09/19 10:34:07;;;;;;;3.60;2.00;;;;;;;14.39;89.86;100973.16;6304100;23;20032;-80
2021/09/19 10:36:41;;;;;;;4.38;2.33;;;;;;;14.71;89.43;100975.19;6341799;23;20077;-81
2021/09/19 10:39:22;;;;;;;3.70;2.30;;;;;;;14.81;91.32;100980.88;6304376;23;20006;-80
2021/09/19 10:42:21;;;;;;;2.47;1.70;;;;;;;15.26;88.56;100979.56;6303708;23;20348;-80
2021/09/19 10:44:53;;;;;;;3.28;1.98;;;;;;;15.35;85.23;100963.38;6325941;23;20090;-80
2021/09/19 10:47:53;;;;;;;4.10;1.90;;;;;;;15.14;85.72;100970.47;6305676;23;20405;-81
2021/09/19 10:50:31;;;;;;;2.72;1.80;;;;;;;15.16;83.49;100962.50;6331860;23;20037;-81
2021/09/19 10:53:23;;;;;;;2.90;1.75;;;;;;;15.22;81.29;100955.16;6303912;23;21598;-81
2021/09/19 10:55:59;;;;;;;3.22;1.80;;;;;;;15.50;83.23;100952.91;6341088;23;19998;-81
2021/09/19 10:58:36;;;;;;;2.28;1.27;;;;;;;15.31;78.49;100959.16;6300904;23;20024;-81
2021/09/19 11:01:26;;;;;;;3.03;1.60;;;;;;;15.60;80.00;100958.56;6367427;23;20060;-80
2021/09/19 11:03:59;;;;;;;3.03;1.63;;;;;;;14.90;80.79;100958.50;6399852;23;20012;-82
2021/09/19 11:06:38;;;;;;;3.22;1.75;;;;;;;14.76;78.86;100962.66;6368426;23;20103;-81
2021/09/19 11:09:26;;;;;;;3.22;1.75;;;;;;;14.88;79.34;100957.69;6366925;23;20035;-80
2021/09/19 11:12:18;;;;;;;3.00;1.60;;;;;;;14.84;81.59;100958.75;6365781;23;19997;-81
2021/09/19 11:15:02;;;;;;;3.13;1.75;;;;;;;14.66;81.89;100961.41;6366884;23;20265;-80
2021/09/19 11:17:34;;;;;;;2.30;1.40;;;;;;;14.59;82.12;100956.50;6405346;23;20001;-82
2021/09/19 11:20:10;;;;;;;5.65;1.90;;;;;;;14.52;84.35;100960.31;6399339;23;20362;-80
2021/09/19 11:22:45;;;;;;;2.65;1.60;;;;;;;14.59;85.62;100951.22;6405909;23;20004;-81
2021/09/19 11:25:20;;;;;;;4.75;2.10;;;;;;;14.46;86.18;100952.72;6399369;23;20032;-81
2021/09/19 11:27:52;;;;;;;3.30;1.90;;;;;;;14.58;85.91;100950.34;6368205;23;20004;-81
2021/09/19 11:30:28;;;;;;;3.30;2.05;;;;;;;14.49;85.83;100952.56;6368122;23;20009;-81
2021/09/19 11:32:58;;;;;;;5.40;1.90;;;;;;;14.41;84.20;100949.44;6367600;23;20079;-81
2021/09/19 11:35:29;;;;;;;3.83;2.00;;;;;;;14.39;85.45;100948.66;6367357;23;20005;-79
2021/09/19 11:38:03;;;;;;;5.82;2.58;;;;;;;14.42;85.06;100945.88;6392434;23;20024;-81
2021/09/19 11:40:34;;;;;;;4.70;2.53;;;;;;;14.45;85.31;100945.75;6400347;23;20032;-81
2021/09/19 11:43:08;;;;;;;4.25;2.15;;;;;;;14.56;85.39;100935.59;6368000;23;20016;-79